Flight Track Log - Related Links

Times and Time Zones

All times are in EDT time to prevent confusion due to time zone crossing. See the N498QS flight status page for this flight to view local times or setup timezone preferences in your user account.

Time Position Orientation Groundspeed Altitude Reporting Facility
EDT Latitude Longitude Course Direction KTS MPH feet Rate Location/Type
Wed 04:27:57 PM 37.6425 -122.3436 North 192 221 2,000  Level Oakland Center
Wed 04:28:58 PM 37.7044 -122.2764 41° Northeast 248 285 6,200 3,393 Climbing Oakland Center
Wed 04:29:59 PM 37.7817 -122.2650 North 278 320 8,900 1,805 Climbing Oakland Center
Wed 04:31:01 PM 37.8581 -122.2864 348° North 292 336 9,900 1,512 Climbing Oakland Center
Wed 04:32:02 PM 37.9342 -122.3458 328° Northwest 323 372 12,000 2,459 Climbing Oakland Center
Wed 04:33:00 PM 37.8874 -122.3500 North  Level FlightAware Approximate
Wed 04:33:03 PM 38.0331 -122.3519 357° North 356 410 14,900  Level Oakland Center
Wed 04:34:05 PM 38.1361 -122.3461 North 371 427 17,400 2,439 Climbing Oakland Center
Wed 04:35:06 PM 38.2475 -122.3525 357° North 397 457 19,900 2,754 Climbing Oakland Center
Wed 04:36:07 PM 38.3797 -122.3678 355° North 402 463 23,000 2,390 Climbing Oakland Center
Wed 04:37:09 PM 38.4919 -122.3814 355° North 404 465 24,800 1,854 Climbing Oakland Center
Wed 04:38:10 PM 38.6103 -122.3950 355° North 421 484 26,800 1,623 Climbing Oakland Center
Wed 04:39:11 PM 38.7350 -122.4114 354° North 427 491 28,100 639 Climbing Oakland Center
Wed 04:40:12 PM 38.8606 -122.4269 354° North 443 510 28,100  Level Oakland Center
Wed 04:41:14 PM 38.9828 -122.4414 355° North 441 507 28,100  Level Oakland Center
Wed 04:42:15 PM 39.1050 -122.4550 355° North 442 509 28,100  Level Oakland Center
Wed 04:43:16 PM 39.2256 -122.4700 354° North 437 503 28,100  Level Oakland Center
Wed 04:44:18 PM 39.3458 -122.4844 355° North 435 501 28,100  Level Oakland Center
Wed 04:45:19 PM 39.4833 -122.5019 354° North 439 505 28,100  Level Oakland Center
Wed 04:46:21 PM 39.6033 -122.5169 354° North 435 501 28,100  Level Oakland Center
Wed 04:47:22 PM 39.7244 -122.5325 354° North 438 504 28,100  Level Oakland Center
Wed 04:48:23 PM 39.8444 -122.5472 355° North 432 497 28,100  Level Oakland Center
Wed 04:49:25 PM 39.9669 -122.5628 354° North 436 502 28,100  Level Oakland Center
Wed 04:50:26 PM 40.0908 -122.5794 354° North 441 507 28,100  Level Oakland Center
Wed 04:51:27 PM 40.2147 -122.5950 355° North 439 505 28,100  Level Oakland Center
Wed 04:52:29 PM 40.3358 -122.6086 355° North 435 501 28,100  Level Oakland Center
Wed 04:53:30 PM 40.4575 -122.6242 354° North 437 503 28,100  Level Oakland Center
Wed 04:54:31 PM 40.5783 -122.6394 355° North 436 502 28,100  Level Oakland Center
Wed 04:55:32 PM 40.6981 -122.6508 356° North 432 497 28,100  Level Oakland Center
Wed 04:56:34 PM 40.8181 -122.6303 North 453 521 28,100  Level Oakland Center
Wed 04:57:35 PM 40.9625 -122.6206 North 431 496 28,100  Level Oakland Center
Wed 04:58:36 PM 41.0806 -122.6364 354° North 426 490 28,100  Level Oakland Center
Wed 04:59:13 PM 41.1506 -122.6442 355° North 424 488 28,100 -1,052 Level Seattle Center
Wed 05:00:13 PM 41.2689 -122.6569 355° North 425 489 26,400 -2,033 Descending Seattle Center
Wed 05:01:14 PM 41.3817 -122.6697 355° North 410 472 24,000 -2,164 Descending Seattle Center
Wed 05:02:15 PM 41.4758 -122.6811 355° North 395 455 22,000 -2,066 Descending Seattle Center
Wed 05:03:16 PM 41.5861 -122.6928 355° North 396 456 19,800 -2,311 Descending Seattle Center
Wed 05:04:17 PM 41.7169 -122.7097 354° North 392 451 17,300 -2,262 Descending Seattle Center
Wed 05:05:18 PM 41.8189 -122.7217 355° North 368 423 15,200 -1,967 Descending Seattle Center
Wed 05:06:19 PM 41.9181 -122.7317 356° North 356 410 13,300 -1,869 Descending Seattle Center
Wed 05:07:20 PM 42.0139 -122.7428 355° North 344 396 11,400 -1,721 Descending Seattle Center
Wed 05:08:21 PM 42.0939 -122.7517 355° North 288 331 9,800 -1,475 Descending Seattle Center
Wed 05:09:22 PM 42.1667 -122.7628 354° North 263 303 8,400 -1,525 Descending Seattle Center
Wed 05:10:23 PM 42.2222 -122.7969 336° Northwest 227 261 6,700 -1,820 Descending Seattle Center
Wed 05:11:24 PM 42.2800 -122.8256 340° North 217 250 4,700 -1,967 Descending Seattle Center
Wed 05:12:25 PM 42.3247 -122.8467 341° North 166 191 2,700 -1,574 Descending Seattle Center
Wed 05:13:26 PM 42.3619 -122.8658 339° North 146 168 1,500 -639 Descending Seattle Center
Wed 05:14:27 PM 42.3950 -122.8825 340° North 144 166 1,400 -98 Descending Seattle Center
Wed 05:16:00 PM 42.3742 -122.8735 180° South  Level Estimated
Wed 05:23:00 PM 42.3742 -122.8735 180° South  Level Estimated

Login

Don't have an account? Register now (free) for customized features, flight alerts, and more!